Forbes Road, Pennsylvania
Current Conditions -  °F | °C
As of 6:50 PM on Saturday 22 Nov 2014 (Local Time) from KLBE Reporting Station
Overcast Overcast  
Wind Chill: 41°   Ceiling: 6000
Heat Index: 45°   Visibility: 10mi
Dew Point: 30°   Wind: 7mph
Humidity: 57%   Direction: 190°S
Pressure: 30.16"   Gusts: NA
Location:  40.35°N, 79.52°W
Report Text: KLBE 222350Z 19006KT 10SM OVC060 07/M01 A3016
Loading
Personal Weather Stations






























Interactive Weather Map New forecast layout! Learn more

10-Day Weather Forecast

Advertisements
Track Severe Weather on mobile